Time;durP1;ratioP1;P1;durP2;ratioP2;P2;SDS_P1;SDS_P2;PMS_P1;PMS_P2;Temp;Humidity;BMP_temperature;BMP_pressure;BME280_temperature;BME280_humidity;BME280_pressure;Samples;Min_cycle;Max_cycle;Signal;HPM_P1;HPM_P2
2022/10/31 00:00:25;;;;;;;19.48;11.40;;;11.90;78.90;;;;;;5074016;28;20368;-17
2022/10/31 00:02:51;;;;;;;17.23;10.85;;;11.90;78.90;;;;;;5073785;28;20498;-16
2022/10/31 00:05:17;;;;;;;21.67;11.15;;;11.90;78.80;;;;;;5074178;28;20567;-16
2022/10/31 00:07:43;;;;;;;16.98;11.20;;;11.90;78.80;;;;;;5072617;28;20468;-17
2022/10/31 00:10:09;;;;;;;14.43;9.75;;;11.80;78.90;;;;;;5073773;28;20033;-16
2022/10/31 00:12:35;;;;;;;19.10;12.10;;;11.80;78.90;;;;;;5073788;28;20040;-16
2022/10/31 00:15:01;;;;;;;18.42;11.55;;;11.80;79.10;;;;;;5073459;28;20025;-15
2022/10/31 00:17:26;;;;;;;19.42;12.95;;;11.80;79.20;;;;;;5074152;28;20017;-17
2022/10/31 00:19:52;;;;;;;16.45;11.00;;;11.70;79.20;;;;;;5072248;28;20077;-18
2022/10/31 00:22:18;;;;;;;14.38;9.27;;;11.70;79.20;;;;;;5073830;28;20112;-18
2022/10/31 00:24:44;;;;;;;16.63;10.95;;;11.70;79.00;;;;;;5073944;28;20430;-17
2022/10/31 00:27:10;;;;;;;14.80;10.90;;;11.70;78.90;;;;;;5073874;28;20055;-16
2022/10/31 00:29:36;;;;;;;15.73;10.38;;;11.60;79.20;;;;;;5073689;28;20124;-16
2022/10/31 00:32:02;;;;;;;18.80;11.45;;;11.60;79.20;;;;;;5073554;28;20032;-18
2022/10/31 00:34:28;;;;;;;27.73;14.77;;;11.60;79.10;;;;;;5073313;28;20035;-18
2022/10/31 00:36:54;;;;;;;16.08;10.90;;;11.60;79.20;;;;;;5073232;28;20093;-16
2022/10/31 00:39:20;;;;;;;19.08;11.82;;;11.60;79.10;;;;;;5073680;28;20025;-17
2022/10/31 00:41:46;;;;;;;19.92;12.00;;;11.50;79.00;;;;;;5073339;28;20119;-17
2022/10/31 00:44:12;;;;;;;19.30;12.10;;;11.50;79.20;;;;;;5073301;28;20119;-16
2022/10/31 00:46:38;;;;;;;16.90;10.90;;;11.50;79.30;;;;;;5073162;28;20111;-16
2022/10/31 00:49:04;;;;;;;14.85;9.73;;;11.50;79.40;;;;;;5072956;28;20046;-17
2022/10/31 00:51:29;;;;;;;16.15;10.95;;;11.50;79.40;;;;;;5073178;28;20028;-16
2022/10/31 00:53:55;;;;;;;20.85;12.10;;;11.50;79.60;;;;;;5073130;28;20056;-17
2022/10/31 00:56:21;;;;;;;16.45;10.98;;;11.50;79.70;;;;;;5073494;28;20464;-18
2022/10/31 00:58:47;;;;;;;15.85;10.55;;;11.50;79.60;;;;;;5072945;28;20032;-19
2022/10/31 01:01:13;;;;;;;22.42;11.90;;;11.50;79.60;;;;;;5073105;28;20025;-17
2022/10/31 01:03:39;;;;;;;16.25;11.38;;;11.50;79.30;;;;;;5073163;28;20034;-17
2022/10/31 01:06:09;;;;;;;22.05;14.05;;;11.40;79.50;;;;;;5071607;28;20024;-15
2022/10/31 01:08:36;;;;;;;18.95;12.02;;;11.40;79.80;;;;;;5073020;28;20056;-15
2022/10/31 01:11:07;;;;;;;15.73;11.18;;;11.30;79.80;;;;;;5072746;28;20532;-14
2022/10/31 01:13:34;;;;;;;20.42;12.68;;;11.30;79.60;;;;;;5073552;28;20044;-16
2022/10/31 01:16:01;;;;;;;19.70;12.95;;;11.30;79.80;;;;;;5073273;28;20021;-13
2022/10/31 01:18:28;;;;;;;17.38;11.52;;;11.30;79.70;;;;;;5073205;28;20051;-16
2022/10/31 01:21:09;;;;;;;17.38;11.70;;;11.30;79.70;;;;;;5072922;28;20032;-15
2022/10/31 01:23:35;;;;;;;17.58;10.57;;;11.30;79.60;;;;;;5073152;28;20028;-15
2022/10/31 01:26:12;;;;;;;17.95;11.00;;;11.30;79.80;;;;;;5072994;28;20024;-17
2022/10/31 01:28:43;;;;;;;15.98;11.27;;;11.30;79.40;;;;;;5073159;28;20055;-16
2022/10/31 01:31:10;;;;;;;16.05;11.00;;;11.20;79.50;;;;;;5072463;28;20052;-16
2022/10/31 01:33:37;;;;;;;25.42;12.52;;;11.20;79.60;;;;;;5073026;28;20025;-17
2022/10/31 01:36:30;;;;;;;10.23;7.63;;;11.20;79.70;;;;;;5072666;28;20078;-16
2022/10/31 01:38:59;;;;;;;15.00;9.60;;;11.20;79.60;;;;;;5073129;28;20021;-16
2022/10/31 01:41:28;;;;;;;15.55;9.65;;;11.10;79.50;;;;;;5072940;28;20480;-16
2022/10/31 01:43:56;;;;;;;17.27;11.63;;;11.10;79.40;;;;;;5072953;28;20029;-16
2022/10/31 01:46:34;;;;;;;12.88;8.98;;;11.10;79.50;;;;;;5072588;28;20048;-15
2022/10/31 01:49:05;;;;;;;17.90;11.35;;;11.00;79.60;;;;;;5072505;28;20031;-17
2022/10/31 01:51:36;;;;;;;14.82;9.95;;;11.00;79.70;;;;;;5072854;28;20025;-18
2022/10/31 01:54:09;;;;;;;17.40;11.00;;;11.00;79.60;;;;;;5072902;28;20375;-17
2022/10/31 01:56:39;;;;;;;19.63;11.67;;;11.00;79.40;;;;;;5072928;28;20043;-16
2022/10/31 01:59:08;;;;;;;16.92;10.60;;;11.00;79.60;;;;;;5073044;28;20071;-14
2022/10/31 02:01:36;;;;;;;18.17;11.75;;;11.00;79.40;;;;;;5072543;28;20078;-18
2022/10/31 02:04:02;;;;;;;17.73;10.57;;;11.00;79.40;;;;;;5072817;28;20035;-16
2022/10/31 02:06:44;;;;;;;15.20;10.32;;;10.90;79.80;;;;;;5073131;28;20219;-18
2022/10/31 02:09:12;;;;;;;14.35;8.90;;;10.90;79.60;;;;;;5072575;28;20050;-15
2022/10/31 02:11:40;;;;;;;19.88;13.73;;;10.90;79.70;;;;;;5072752;28;20032;-15
2022/10/31 02:14:06;;;;;;;15.65;9.93;;;10.90;80.00;;;;;;5072379;28;20035;-17
2022/10/31 02:16:32;;;;;;;15.75;9.60;;;10.90;80.00;;;;;;5073368;28;20025;-17
2022/10/31 02:18:58;;;;;;;16.33;11.90;;;10.90;79.90;;;;;;5075814;28;20503;-17
2022/10/31 02:21:55;;;;;;;16.33;9.88;;;10.90;80.30;;;;;;5075831;28;20029;-17
2022/10/31 02:25:03;;;;;;;16.05;10.55;;;10.80;80.00;;;;;;5076255;28;20036;-18
2022/10/31 02:28:06;;;;;;;15.48;10.27;;;10.80;80.00;;;;;;5075765;28;20502;-14
2022/10/31 02:30:45;;;;;;;20.73;10.40;;;10.80;80.10;;;;;;5057281;28;20067;-16
2022/10/31 02:33:48;;;;;;;18.10;12.52;;;10.80;80.00;;;;;;5075512;28;20484;-15
2022/10/31 02:36:21;;;;;;;18.45;11.45;;;10.80;80.10;;;;;;5075716;28;20025;-15
2022/10/31 02:39:12;;;;;;;19.80;12.25;;;10.80;80.10;;;;;;5075645;28;20090;-17
2022/10/31 02:41:56;;;;;;;16.38;10.40;;;10.70;80.10;;;;;;5075491;28;20036;-17
2022/10/31 02:45:00;;;;;;;13.80;8.90;;;10.70;80.30;;;;;;5075591;28;20150;-16
2022/10/31 02:47:35;;;;;;;21.15;12.07;;;10.70;80.10;;;;;;5075447;28;20119;-15
2022/10/31 02:50:13;;;;;;;13.93;9.65;;;10.70;80.20;;;;;;5075592;28;20027;-15
2022/10/31 02:52:40;;;;;;;15.32;9.82;;;10.60;80.20;;;;;;5075413;28;20032;-15
2022/10/31 02:55:34;;;;;;;16.70;11.63;;;10.60;80.40;;;;;;5075016;28;20021;-17
2022/10/31 02:58:08;;;;;;;19.40;11.70;;;10.60;80.40;;;;;;5075571;28;20024;-15
2022/10/31 03:00:53;;;;;;;;;;;10.50;80.50;;;;;;5075669;28;20429;-15
2022/10/31 03:03:36;;;;;;;14.27;9.35;;;10.50;80.70;;;;;;5075462;28;19904;-16
2022/10/31 03:06:07;;;;;;;18.00;11.02;;;10.50;80.40;;;;;;5075277;28;20074;-17
2022/10/31 03:09:03;;;;;;;17.73;11.35;;;10.40;80.50;;;;;;5075106;28;20488;-15
2022/10/31 03:11:35;;;;;;;15.70;9.98;;;10.40;80.40;;;;;;5074889;28;20082;-18
2022/10/31 03:14:10;;;;;;;17.80;10.65;;;10.40;80.50;;;;;;5074980;28;20028;-17
2022/10/31 03:16:48;;;;;;;15.70;9.63;;;10.40;80.50;;;;;;5075005;28;20056;-16
2022/10/31 03:19:26;;;;;;;18.23;11.30;;;10.40;80.70;;;;;;5075439;28;20112;-14
2022/10/31 03:22:25;;;;;;;13.23;9.07;;;10.40;80.80;;;;;;5075157;28;20021;-15
2022/10/31 03:24:54;;;;;;;16.52;8.35;;;10.40;80.70;;;;;;5074558;28;20078;-17
2022/10/31 03:27:31;;;;;;;14.23;8.68;;;10.40;80.50;;;;;;5074539;28;20034;-15
2022/10/31 03:30:01;;;;;;;12.25;7.60;;;10.40;80.40;;;;;;5073464;28;20049;-18
2022/10/31 03:32:33;;;;;;;13.35;8.38;;;10.40;80.50;;;;;;5074624;28;20078;-16
2022/10/31 03:35:03;;;;;;;13.82;9.30;;;10.40;80.50;;;;;;5074187;28;20082;-15
2022/10/31 03:37:33;;;;;;;16.65;10.80;;;10.40;80.40;;;;;;5074766;28;20025;-16
2022/10/31 03:40:01;;;;;;;17.30;10.82;;;10.40;80.60;;;;;;5074805;28;20024;-16
2022/10/31 03:42:31;;;;;;;17.17;10.20;;;10.40;80.80;;;;;;5074349;28;20044;-16
2022/10/31 03:45:10;;;;;;;20.45;10.57;;;10.30;80.60;;;;;;5074847;28;20008;-15
2022/10/31 03:47:38;;;;;;;15.18;10.13;;;10.30;80.70;;;;;;5074505;28;20144;-16
2022/10/31 03:50:07;;;;;;;16.77;10.93;;;10.30;80.90;;;;;;5074092;28;20028;-16
2022/10/31 03:52:48;;;;;;;17.45;10.15;;;10.20;81.10;;;;;;5074712;28;20042;-16
2022/10/31 03:55:26;;;;;;;14.27;9.85;;;10.20;81.10;;;;;;5074678;28;20021;-16
2022/10/31 03:58:07;;;;;;;15.32;9.07;;;10.10;81.00;;;;;;5074138;28;20032;-15
2022/10/31 04:00:39;;;;;;;11.82;7.57;;;10.10;81.00;;;;;;5074061;28;20025;-16
2022/10/31 04:03:10;;;;;;;13.52;9.23;;;10.10;81.00;;;;;;5073941;28;20115;-15
2022/10/31 04:05:37;;;;;;;13.20;8.18;;;10.10;80.80;;;;;;5074232;28;20031;-17
2022/10/31 04:08:07;;;;;;;13.80;8.38;;;10.20;80.70;;;;;;5074222;28;20202;-15
2022/10/31 04:10:36;;;;;;;18.60;10.85;;;10.20;80.60;;;;;;5074468;28;20484;-15
2022/10/31 04:13:10;;;;;;;15.13;9.77;;;10.10;81.00;;;;;;5074206;28;20024;-14
2022/10/31 04:15:38;;;;;;;17.23;9.77;;;10.10;80.90;;;;;;5074001;28;20070;-15
2022/10/31 04:18:06;;;;;;;16.23;11.02;;;10.10;80.80;;;;;;5073860;28;20020;-15
2022/10/31 04:20:37;;;;;;;16.45;10.20;;;10.10;81.00;;;;;;5073589;28;20028;-17
2022/10/31 04:23:05;;;;;;;14.95;9.32;;;10.00;80.80;;;;;;5073449;28;20476;-16
2022/10/31 04:25:31;;;;;;;19.80;11.82;;;10.00;80.80;;;;;;5073999;28;20377;-15
2022/10/31 04:27:57;;;;;;;14.32;9.13;;;9.90;80.90;;;;;;5073398;28;20028;-18
2022/10/31 04:30:23;;;;;;;19.95;11.30;;;9.90;80.90;;;;;;5073187;28;20101;-17
2022/10/31 04:32:49;;;;;;;15.88;10.25;;;9.90;80.90;;;;;;5073363;28;20031;-16
2022/10/31 04:35:15;;;;;;;20.10;11.57;;;10.00;81.30;;;;;;5073613;28;20111;-17
2022/10/31 04:37:42;;;;;;;20.02;11.27;;;9.90;81.20;;;;;;5074218;28;20464;-16
2022/10/31 04:40:08;;;;;;;23.25;13.05;;;9.90;81.20;;;;;;5073049;28;20039;-16
2022/10/31 04:42:34;;;;;;;24.33;12.43;;;9.90;81.10;;;;;;5073283;28;20029;-18
2022/10/31 04:45:00;;;;;;;18.23;11.45;;;9.90;81.20;;;;;;5073102;28;20031;-15
2022/10/31 04:47:26;;;;;;;14.65;8.80;;;9.90;81.20;;;;;;5073170;28;20166;-17
2022/10/31 04:49:52;;;;;;;13.68;8.80;;;9.90;81.30;;;;;;5073127;28;20021;-16
2022/10/31 04:52:18;;;;;;;16.08;9.98;;;9.80;81.30;;;;;;5073214;28;20028;-16
2022/10/31 04:54:44;;;;;;;19.02;12.07;;;9.80;81.30;;;;;;5073219;28;20021;-18
2022/10/31 04:57:10;;;;;;;23.42;13.77;;;9.80;81.30;;;;;;5073035;28;20017;-16
2022/10/31 04:59:36;;;;;;;17.70;10.95;;;9.80;81.90;;;;;;5073682;28;20070;-17
2022/10/31 05:02:02;;;;;;;13.95;9.02;;;9.80;81.40;;;;;;5073400;28;20036;-17
2022/10/31 05:04:28;;;;;;;16.65;10.50;;;9.80;81.40;;;;;;5072948;28;20493;-18
2022/10/31 05:06:54;;;;;;;16.40;10.65;;;9.70;81.60;;;;;;5072757;28;20043;-16
2022/10/31 05:09:20;;;;;;;13.95;9.43;;;9.80;81.70;;;;;;5073085;28;20033;-15
2022/10/31 05:11:46;;;;;;;18.67;10.18;;;9.80;81.60;;;;;;5073300;28;20120;-16
2022/10/31 05:14:12;;;;;;;16.25;9.55;;;9.70;81.70;;;;;;5073578;28;20437;-16
2022/10/31 05:16:38;;;;;;;16.92;9.80;;;9.70;81.80;;;;;;5072946;28;20021;-16
2022/10/31 05:19:04;;;;;;;15.43;9.77;;;9.70;81.80;;;;;;5073051;28;20040;-18
2022/10/31 05:21:30;;;;;;;13.48;8.00;;;9.70;81.80;;;;;;5072854;28;20044;-17
2022/10/31 05:23:56;;;;;;;16.00;8.93;;;9.60;81.60;;;;;;5072893;28;20075;-16
2022/10/31 05:26:22;;;;;;;14.13;8.90;;;9.70;81.60;;;;;;5073106;28;20036;-16
2022/10/31 05:28:48;;;;;;;12.98;7.95;;;9.70;81.60;;;;;;5073207;28;20028;-19
2022/10/31 05:31:14;;;;;;;15.55;11.07;;;9.60;81.60;;;;;;5072698;28;20083;-17
2022/10/31 05:33:40;;;;;;;15.88;8.57;;;9.70;81.90;;;;;;5072801;28;20021;-16
2022/10/31 05:36:06;;;;;;;11.60;7.20;;;9.70;81.80;;;;;;5072643;28;20139;-15
2022/10/31 05:38:32;;;;;;;12.02;7.28;;;9.70;81.40;;;;;;5072775;28;20578;-17
2022/10/31 05:41:00;;;;;;;12.73;7.95;;;9.70;81.40;;;;;;5072654;28;20075;-17
2022/10/31 05:43:28;;;;;;;13.52;8.55;;;9.70;81.50;;;;;;5073070;28;20021;-17
2022/10/31 05:45:55;;;;;;;13.98;8.35;;;9.70;81.50;;;;;;5072907;28;20391;-17
2022/10/31 05:48:22;;;;;;;18.20;10.10;;;9.70;81.40;;;;;;5072937;28;20033;-17
2022/10/31 05:50:49;;;;;;;20.17;11.82;;;9.70;81.60;;;;;;5072447;28;20499;-18
2022/10/31 05:53:16;;;;;;;14.38;9.85;;;9.70;81.50;;;;;;5075825;28;20062;-17
2022/10/31 05:55:43;;;;;;;19.45;12.68;;;9.70;81.50;;;;;;5075143;28;20024;-16
2022/10/31 05:58:10;;;;;;;13.45;8.32;;;9.70;81.60;;;;;;5076762;28;20111;-16
2022/10/31 06:00:36;;;;;;;16.90;8.95;;;9.70;81.60;;;;;;5076608;28;20035;-16
2022/10/31 06:03:05;;;;;;;13.43;8.82;;;9.70;81.60;;;;;;5076383;28;20032;-15
2022/10/31 06:05:32;;;;;;;16.45;11.07;;;9.70;81.60;;;;;;5076334;28;20108;-16
2022/10/31 06:07:59;;;;;;;21.55;11.82;;;9.70;81.60;;;;;;5076043;28;20115;-16
2022/10/31 06:10:25;;;;;;;16.17;9.50;;;9.80;81.80;;;;;;5076113;28;20439;-15
2022/10/31 06:12:51;;;;;;;13.52;8.63;;;9.80;81.90;;;;;;5076170;28;20055;-16
2022/10/31 06:15:18;;;;;;;14.52;8.93;;;9.80;81.90;;;;;;5076330;28;20020;-13
2022/10/31 06:17:44;;;;;;;13.07;8.52;;;9.80;81.80;;;;;;5075985;28;20025;-16
2022/10/31 06:20:10;;;;;;;16.02;8.60;;;9.90;81.70;;;;;;5075886;28;20034;-14
2022/10/31 06:22:36;;;;;;;13.35;8.55;;;9.90;82.00;;;;;;5075909;28;20103;-15
2022/10/31 06:25:03;;;;;;;11.23;8.18;;;10.00;82.20;;;;;;5075678;28;20052;-15
2022/10/31 06:27:29;;;;;;;15.75;9.38;;;10.00;81.90;;;;;;5075753;28;20025;-16
2022/10/31 06:29:55;;;;;;;14.63;9.50;;;10.10;82.00;;;;;;5075528;28;20055;-17
2022/10/31 06:32:21;;;;;;;18.98;9.15;;;10.10;82.10;;;;;;5076048;28;20025;-15
2022/10/31 06:34:49;;;;;;;14.93;9.82;;;10.20;82.20;;;;;;5076187;28;20530;-17
2022/10/31 06:37:16;;;;;;;14.05;9.40;;;10.30;82.30;;;;;;5075635;28;20495;-15
2022/10/31 06:39:42;;;;;;;19.35;9.50;;;10.40;82.40;;;;;;5075919;28;20059;-14
2022/10/31 06:42:07;;;;;;;16.83;8.00;;;10.60;82.20;;;;;;5075895;28;20060;-15
2022/10/31 06:44:33;;;;;;;16.00;8.80;;;10.70;82.10;;;;;;5075856;28;20502;-15
2022/10/31 06:46:59;;;;;;;16.17;10.18;;;10.90;82.00;;;;;;5075488;28;20043;-16
2022/10/31 06:49:25;;;;;;;13.57;8.65;;;11.10;82.10;;;;;;5075738;28;20066;-15
2022/10/31 06:51:51;;;;;;;14.65;9.63;;;11.30;82.00;;;;;;5075379;28;20365;-14
2022/10/31 06:54:17;;;;;;;14.73;9.65;;;11.50;81.90;;;;;;5075405;28;20020;-15
2022/10/31 06:56:47;;;;;;;17.98;10.13;;;11.80;81.60;;;;;;5075482;28;20358;-14
2022/10/31 06:59:13;;;;;;;19.23;11.23;;;12.00;81.20;;;;;;5075560;28;20028;-15
2022/10/31 07:01:39;;;;;;;21.10;10.68;;;12.20;80.90;;;;;;5075441;28;20100;-15
2022/10/31 07:04:05;;;;;;;22.17;12.27;;;12.20;80.70;;;;;;5074934;28;20162;-17
2022/10/31 07:06:31;;;;;;;16.80;10.30;;;12.30;80.50;;;;;;5075154;28;20055;-16
2022/10/31 07:08:57;;;;;;;16.70;10.40;;;12.40;80.60;;;;;;5074801;28;20024;-15
2022/10/31 07:11:23;;;;;;;16.75;8.77;;;12.50;80.60;;;;;;5074427;28;20025;-15
2022/10/31 07:13:48;;;;;;;16.38;9.52;;;12.70;80.20;;;;;;5074997;28;20029;-16
2022/10/31 07:16:14;;;;;;;17.77;9.15;;;12.90;80.20;;;;;;5074931;28;20031;-14
2022/10/31 07:18:40;;;;;;;14.82;8.75;;;13.10;80.00;;;;;;5074879;28;20021;-14
2022/10/31 07:21:06;;;;;;;14.85;7.80;;;13.20;79.50;;;;;;5074541;28;20110;-15
2022/10/31 07:23:32;;;;;;;15.65;8.77;;;13.40;79.20;;;;;;5075136;28;20024;-16
2022/10/31 07:25:59;;;;;;;15.95;8.90;;;13.60;78.90;;;;;;5075155;28;20448;-15
2022/10/31 07:28:26;;;;;;;16.95;9.52;;;13.70;78.60;;;;;;5074946;28;20036;-15
2022/10/31 07:30:54;;;;;;;19.35;10.52;;;13.90;78.30;;;;;;5074089;28;20118;-15
2022/10/31 07:33:20;;;;;;;18.65;9.95;;;13.90;78.80;;;;;;5074865;28;20021;-15
2022/10/31 07:35:46;;;;;;;17.50;9.63;;;14.00;78.80;;;;;;5074466;28;20024;-16
2022/10/31 07:38:14;;;;;;;17.70;9.40;;;14.10;78.50;;;;;;5074834;28;20020;-15
2022/10/31 07:40:41;;;;;;;16.73;10.88;;;14.30;78.30;;;;;;5074455;28;20036;-16
2022/10/31 07:43:07;;;;;;;14.63;9.55;;;14.40;78.30;;;;;;5074466;28;20035;-16
2022/10/31 07:45:33;;;;;;;17.65;10.55;;;14.50;78.00;;;;;;5074689;28;20104;-15
2022/10/31 07:47:59;;;;;;;16.30;10.07;;;14.70;78.00;;;;;;5074241;28;20487;-17
2022/10/31 07:50:28;;;;;;;17.90;10.80;;;14.90;77.90;;;;;;5074999;28;20029;-16
2022/10/31 07:53:04;;;;;;;17.63;10.70;;;14.90;77.60;;;;;;5073949;28;20024;-15
2022/10/31 07:55:30;;;;;;;20.20;10.45;;;15.10;77.00;;;;;;5075030;28;20024;-15
2022/10/31 07:58:01;;;;;;;20.50;12.32;;;15.20;77.30;;;;;;5074333;28;20484;-17
2022/10/31 08:00:28;;;;;;;17.55;11.00;;;15.30;76.90;;;;;;5074054;28;20505;-15
2022/10/31 08:03:01;;;;;;;21.73;11.68;;;15.40;76.90;;;;;;5074094;28;20028;-15
2022/10/31 08:05:28;;;;;;;22.63;12.27;;;15.50;76.30;;;;;;5074308;28;20025;-15
2022/10/31 08:07:54;;;;;;;16.95;11.32;;;15.60;76.10;;;;;;5074449;28;20036;-17
2022/10/31 08:10:21;;;;;;;20.90;13.43;;;15.70;76.10;;;;;;5074481;28;20020;-15
2022/10/31 08:12:54;;;;;;;22.40;12.93;;;15.80;76.20;;;;;;5074927;28;20086;-16
2022/10/31 08:15:20;;;;;;;20.23;12.38;;;15.90;76.00;;;;;;5073174;28;20032;-15
2022/10/31 08:17:46;;;;;;;20.83;12.73;;;16.00;75.90;;;;;;5074026;28;20031;-15
2022/10/31 08:20:11;;;;;;;23.02;13.30;;;16.10;76.00;;;;;;5073928;28;20542;-16
2022/10/31 08:22:37;;;;;;;22.58;13.35;;;16.10;75.70;;;;;;5073831;28;20467;-16
2022/10/31 08:25:03;;;;;;;23.05;12.65;;;16.30;75.90;;;;;;5073427;28;20031;-15
2022/10/31 08:27:29;;;;;;;22.08;13.05;;;16.40;75.50;;;;;;5074266;28;20550;-15
2022/10/31 08:29:55;;;;;;;20.83;12.30;;;16.60;75.10;;;;;;5073522;28;20087;-15
2022/10/31 08:32:21;;;;;;;19.48;11.85;;;16.80;75.10;;;;;;5073891;28;20064;-16
2022/10/31 08:34:47;;;;;;;26.20;14.23;;;17.00;74.70;;;;;;5073336;28;20040;-16
2022/10/31 08:37:18;;;;;;;24.58;14.07;;;17.30;74.70;;;;;;5073949;28;20020;-17
2022/10/31 08:39:44;;;;;;;20.85;12.70;;;17.50;74.20;;;;;;5073672;28;20381;-15
2022/10/31 08:42:10;;;;;;;23.27;12.32;;;17.70;74.00;;;;;;5073274;28;20037;-15
2022/10/31 08:44:36;;;;;;;22.17;12.82;;;17.90;73.40;;;;;;5073275;28;20033;-14
2022/10/31 08:47:01;;;;;;;21.48;13.18;;;18.30;73.20;;;;;;5072137;28;20043;-15
2022/10/31 08:49:27;;;;;;;17.60;11.40;;;18.50;72.90;;;;;;5073555;28;20598;-15
2022/10/31 08:51:53;;;;;;;22.60;12.43;;;18.80;72.70;;;;;;5073174;28;20414;-15
2022/10/31 08:54:19;;;;;;;16.70;10.20;;;18.90;72.30;;;;;;5072012;28;20064;-15
2022/10/31 08:56:45;;;;;;;18.25;9.90;;;19.20;72.10;;;;;;5073178;28;20028;-15
2022/10/31 08:59:11;;;;;;;16.70;9.90;;;19.40;71.80;;;;;;5071800;28;20029;-15
2022/10/31 09:01:37;;;;;;;20.10;10.35;;;19.60;71.40;;;;;;5073155;28;20017;-15
2022/10/31 09:04:02;;;;;;;16.52;9.32;;;19.90;71.10;;;;;;5071851;28;20024;-15
2022/10/31 09:06:28;;;;;;;16.27;9.15;;;20.20;70.40;;;;;;5072910;28;20032;-15
2022/10/31 09:08:54;;;;;;;14.90;9.02;;;20.40;70.00;;;;;;5072884;28;20029;-15
2022/10/31 09:11:20;;;;;;;14.45;9.15;;;20.70;69.60;;;;;;5073719;28;20021;-15
2022/10/31 09:13:46;;;;;;;15.68;8.68;;;20.90;69.10;;;;;;5073009;28;20480;-15
2022/10/31 09:16:12;;;;;;;18.13;9.90;;;21.30;68.50;;;;;;5072999;28;20032;-15
2022/10/31 09:18:37;;;;;;;14.40;8.27;;;21.50;67.70;;;;;;5073068;28;20017;-14
2022/10/31 09:21:03;;;;;;;13.80;8.75;;;21.80;67.10;;;;;;5072717;28;20205;-14
2022/10/31 09:23:30;;;;;;;16.27;8.80;;;22.10;66.20;;;;;;5073177;28;20025;-15
2022/10/31 09:25:58;;;;;;;13.38;8.23;;;22.40;65.60;;;;;;5074333;28;20029;-15
2022/10/31 09:28:24;;;;;;;16.65;10.38;;;22.60;65.40;;;;;;5076847;28;20036;-14
2022/10/31 09:30:52;;;;;;;15.23;8.18;;;22.80;64.80;;;;;;5076889;28;20051;-15
2022/10/31 09:33:20;;;;;;;17.23;8.65;;;22.90;64.10;;;;;;5075546;28;20035;-15
2022/10/31 09:35:46;;;;;;;16.23;9.02;;;23.20;63.70;;;;;;5076783;28;20035;-15
2022/10/31 09:38:15;;;;;;;14.45;8.00;;;23.40;63.10;;;;;;5077119;28;20388;-16
2022/10/31 09:40:44;;;;;;;13.48;7.72;;;23.50;62.70;;;;;;5076769;28;20387;-15
2022/10/31 09:43:15;;;;;;;14.50;7.60;;;23.70;62.50;;;;;;5077109;28;20464;-14
2022/10/31 09:46:08;;;;;;;15.75;8.70;;;23.90;61.90;;;;;;5077503;28;20067;-16
2022/10/31 09:49:31;;;;;;;14.83;8.83;;;24.00;61.50;;;;;;5076872;28;20033;-15
2022/10/31 09:52:31;;;;;;;19.77;10.88;;;24.10;60.30;;;;;;5054669;28;20029;-14
2022/10/31 09:55:19;;;;;;;13.65;8.05;;;24.00;60.00;;;;;;5054227;28;20037;-13
2022/10/31 09:57:46;;;;;;;15.32;8.00;;;23.80;60.50;;;;;;5054664;28;20075;-14
2022/10/31 10:00:17;;;;;;;20.40;8.82;;;23.80;60.80;;;;;;5054304;28;20039;-15
2022/10/31 10:02:53;;;;;;;15.65;9.35;;;23.80;60.40;;;;;;5054583;28;20033;-14
2022/10/31 10:05:45;;;;;;;14.48;9.57;;;23.80;60.40;;;;;;5054058;28;20029;-14
2022/10/31 10:08:22;;;;;;;22.30;10.90;;;23.80;60.00;;;;;;5054329;28;20158;-13
2022/10/31 10:11:17;;;;;;;20.83;11.23;;;23.90;59.00;;;;;;5053936;28;20493;-15
2022/10/31 10:14:16;;;;;;;15.98;8.80;;;23.70;57.80;;;;;;5054526;28;20369;-14
2022/10/31 10:17:08;;;;;;;16.88;8.95;;;23.70;59.00;;;;;;5054021;28;20071;-15
2022/10/31 10:20:01;;;;;;;16.10;8.73;;;24.00;55.40;;;;;;5053826;28;20389;-15
2022/10/31 10:22:37;;;;;;;16.27;8.93;;;24.40;57.80;;;;;;5065551;28;20033;-14
2022/10/31 10:25:03;;;;;;;20.55;9.68;;;24.80;57.90;;;;;;5075989;28;20032;-15
2022/10/31 10:28:00;;;;;;;19.40;11.05;;;25.30;57.10;;;;;;5076115;28;20392;-14
2022/10/31 10:30:34;;;;;;;15.73;8.27;;;25.70;54.50;;;;;;5075630;28;20442;-14
2022/10/31 10:33:02;;;;;;;;;;;26.20;55.10;;;;;;5074863;28;20024;-14
2022/10/31 10:35:35;;;;;;;15.35;8.95;;;26.60;53.40;;;;;;5075866;28;19950;-15
2022/10/31 10:38:13;;;;;;;;;;;26.90;53.60;;;;;;5076456;28;20035;-15
2022/10/31 10:40:39;;;;;;;11.55;6.88;;;27.10;48.90;;;;;;5076234;28;20267;-14
2022/10/31 10:43:23;;;;;;;12.82;7.22;;;27.30;52.60;;;;;;5075507;28;20476;-14
2022/10/31 10:49:00;;;;;;;13.85;8.55;;;28.00;50.10;;;;;;5075633;28;20395;-15
2022/10/31 10:51:47;;;;;;;13.52;7.30;;;28.20;49.90;;;;;;5075302;28;20020;-15
2022/10/31 10:54:36;;;;;;;15.75;8.95;;;28.20;49.00;;;;;;5054018;28;20065;-14
2022/10/31 10:57:31;;;;;;;14.18;7.22;;;28.40;48.70;;;;;;5053105;28;20488;-14
2022/10/31 11:00:00;;;;;;;15.38;8.10;;;28.70;48.50;;;;;;5053443;28;20037;-15
2022/10/31 11:02:31;;;;;;;16.80;10.02;;;29.10;48.10;;;;;;5053130;28;20492;-14
2022/10/31 11:05:00;;;;;;;11.80;7.32;;;29.30;47.20;;;;;;5052806;28;20040;-14
2022/10/31 11:07:40;;;;;;;12.68;6.53;;;29.40;47.00;;;;;;5052957;28;20075;-14
2022/10/31 11:10:13;;;;;;;12.48;7.80;;;29.70;46.80;;;;;;5053019;28;20082;-15
2022/10/31 11:12:40;;;;;;;12.05;6.82;;;30.00;46.30;;;;;;5052962;28;20037;-15
2022/10/31 11:15:24;;;;;;;11.50;6.93;;;30.40;45.60;;;;;;5052597;28;20124;-14
2022/10/31 11:17:53;;;;;;;19.88;10.10;;;30.60;42.90;;;;;;5053372;28;20037;-14
2022/10/31 11:20:18;;;;;;;15.48;7.82;;;30.90;43.60;;;;;;5053034;28;20397;-14
2022/10/31 11:22:46;;;;;;;11.07;6.80;;;30.90;43.60;;;;;;5036092;28;20029;-15
2022/10/31 11:25:25;;;;;;;13.65;6.80;;;30.90;43.50;;;;;;5052656;28;20068;-14
2022/10/31 11:28:05;;;;;;;14.23;8.77;;;31.00;43.30;;;;;;5053000;28;20059;-16
2022/10/31 11:30:41;;;;;;;12.52;6.60;;;31.30;42.30;;;;;;5056700;28;20131;-15
2022/10/31 11:33:24;;;;;;;11.88;6.07;;;31.40;42.10;;;;;;5074732;28;20028;-14
2022/10/31 11:35:52;;;;;;;12.10;7.75;;;31.70;41.70;;;;;;5074564;28;20060;-14
2022/10/31 11:38:22;;;;;;;11.52;6.18;;;31.90;42.10;;;;;;5074511;28;20391;-15
2022/10/31 11:40:56;;;;;;;13.00;6.63;;;32.10;41.60;;;;;;5072967;28;20442;-15
2022/10/31 11:43:27;;;;;;;13.60;6.82;;;32.10;40.90;;;;;;5074402;28;20031;-14
2022/10/31 11:45:54;;;;;;;13.05;6.90;;;32.00;41.40;;;;;;5073544;28;20042;-14
2022/10/31 11:48:23;;;;;;;13.85;7.28;;;31.90;41.70;;;;;;5074393;28;20029;-15
2022/10/31 11:50:59;;;;;;;14.85;7.60;;;31.90;41.80;;;;;;5073456;28;20013;-15
2022/10/31 11:53:29;;;;;;;14.10;7.85;;;31.90;41.80;;;;;;5074583;28;20035;-14
2022/10/31 11:56:14;;;;;;;11.68;7.93;;;32.10;41.40;;;;;;5074846;28;20016;-15
2022/10/31 11:58:41;;;;;;;14.05;7.70;;;32.20;40.80;;;;;;5074168;28;20384;-15
2022/10/31 12:01:27;;;;;;;14.82;8.20;;;32.30;40.80;;;;;;5074222;28;20029;-15
2022/10/31 12:04:07;;;;;;;16.83;8.40;;;32.30;40.40;;;;;;5074650;28;20021;-15
2022/10/31 12:06:39;;;;;;;13.93;7.70;;;32.20;40.20;;;;;;5073988;28;20028;-15
2022/10/31 12:09:33;;;;;;;12.48;7.38;;;31.90;41.50;;;;;;5074043;28;20043;-15
2022/10/31 12:12:18;;;;;;;12.45;7.63;;;31.40;41.80;;;;;;5073556;28;20064;-15
2022/10/31 12:14:56;;;;;;;10.07;6.40;;;31.40;42.50;;;;;;5072652;28;20090;-15
2022/10/31 12:17:34;;;;;;;10.82;6.18;;;31.40;42.30;;;;;;5074137;28;20046;-15
2022/10/31 12:20:15;;;;;;;11.95;6.07;;;31.60;42.40;;;;;;5073762;28;20024;-15
2022/10/31 12:22:58;;;;;;;9.93;5.82;;;31.80;41.80;;;;;;5074497;28;20024;-15
2022/10/31 12:25:41;;;;;;;14.20;7.10;;;31.90;41.40;;;;;;5074422;28;20033;-15
2022/10/31 12:28:28;;;;;;;11.55;6.07;;;32.10;41.50;;;;;;5073630;28;20060;-15
2022/10/31 12:31:12;;;;;;;13.50;7.15;;;32.20;39.70;;;;;;5073076;28;20060;-15
2022/10/31 12:33:56;;;;;;;13.98;6.88;;;32.20;40.30;;;;;;5072273;28;20031;-15
2022/10/31 12:36:50;;;;;;;11.25;6.72;;;32.20;40.60;;;;;;5074317;28;20119;-14
2022/10/31 12:39:19;;;;;;;14.63;7.40;;;32.40;40.20;;;;;;5073731;28;20020;-14
2022/10/31 12:41:58;;;;;;;16.67;7.80;;;32.50;40.50;;;;;;5073962;28;20108;-14
2022/10/31 12:44:52;;;;;;;17.33;7.68;;;32.60;40.00;;;;;;5073625;28;20479;-14
2022/10/31 12:47:18;;;;;;;10.70;5.80;;;32.50;38.10;;;;;;5073200;28;20028;-14
2022/10/31 12:50:11;;;;;;;12.00;6.00;;;32.50;39.80;;;;;;5073658;28;20074;-13
2022/10/31 12:53:18;;;;;;;15.55;6.80;;;32.40;39.30;;;;;;5073289;28;20024;-15
2022/10/31 12:55:53;;;;;;;13.30;6.45;;;32.50;39.70;;;;;;5073283;28;20036;-14
2022/10/31 12:58:39;;;;;;;13.20;6.65;;;32.60;38.00;;;;;;5073489;28;20128;-15
2022/10/31 13:01:36;;;;;;;12.82;5.80;;;32.70;37.20;;;;;;5073287;28;20104;-15